Time;durP1;ratioP1;P1;durP2;ratioP2;P2;SDS_P1;SDS_P2;PMS_P1;PMS_P2;Temp;Humidity;BMP_temperature;BMP_pressure;BME280_temperature;BME280_humidity;BME280_pressure;Samples;Min_cycle;Max_cycle;Signal;HPM_P1;HPM_P2
2023/04/11 00:01:53;;;;;;;5.70;5.10;;;11.20;99.90;;;-141.84;48.85;20092.28;5072432;28;20223;-75
2023/04/11 00:04:24;;;;;;;5.53;5.03;;;11.20;99.90;;;-141.84;48.77;20076.03;5072988;28;20629;-73
2023/04/11 00:06:52;;;;;;;5.90;5.30;;;11.20;99.90;;;-141.84;48.35;20090.25;5072126;28;20201;-74
2023/04/11 00:09:20;;;;;;;6.30;5.50;;;11.30;99.90;;;-141.84;49.21;20063.81;5072426;28;20224;-73
2023/04/11 00:11:48;;;;;;;5.67;5.17;;;11.20;99.90;;;-141.84;48.86;20057.72;5072259;28;20228;-73
2023/04/11 00:14:17;;;;;;;7.20;5.97;;;11.20;99.90;;;-141.84;48.81;20071.97;5072076;28;20232;-72
2023/04/11 00:16:48;;;;;;;5.50;5.00;;;11.20;99.90;;;-141.84;48.57;20124.81;5071755;28;20619;-75
2023/04/11 00:19:16;;;;;;;7.33;6.00;;;11.10;99.90;;;-141.84;49.06;20067.88;5072623;28;20212;-73
2023/04/11 00:21:46;;;;;;;6.57;5.60;;;11.10;99.90;;;-141.84;49.06;20049.59;5071974;28;20224;-73
2023/04/11 00:24:14;;;;;;;6.83;5.57;;;11.10;99.90;;;-141.84;49.41;20055.69;5071804;28;20631;-74
2023/04/11 00:26:42;;;;;;;6.03;5.10;;;11.00;99.90;;;-141.84;49.28;20098.38;5071939;28;20228;-60
2023/04/11 00:29:11;;;;;;;6.27;5.20;;;11.10;99.90;;;-141.84;49.36;20023.19;5071216;28;20231;-61
2023/04/11 00:31:39;;;;;;;6.90;5.30;;;11.10;99.90;;;-141.84;49.74;20021.16;5071677;28;20205;-60
2023/04/11 00:34:07;;;;;;;6.33;5.20;;;11.00;99.90;;;-141.84;49.57;20041.47;5072324;28;20262;-60
2023/04/11 00:36:35;;;;;;;5.73;5.13;;;11.00;99.90;;;-141.84;49.74;20000.81;5071478;28;20249;-59
2023/04/11 00:39:05;;;;;;;6.33;5.40;;;10.90;99.90;;;-141.84;50.04;20021.16;5071429;28;20308;-60
2023/04/11 00:41:34;;;;;;;6.40;5.47;;;10.90;99.90;;;-141.84;49.43;20041.47;5071427;28;20233;-61
2023/04/11 00:44:02;;;;;;;7.63;5.50;;;10.90;99.90;;;-141.84;48.86;20057.72;5071131;28;20217;-60
2023/04/11 00:46:30;;;;;;;5.70;5.10;;;11.00;99.90;;;-141.84;48.79;20055.69;5071363;28;20200;-60
2023/04/11 00:48:59;;;;;;;5.40;4.90;;;11.00;99.90;;;-141.84;49.13;20031.31;5071890;28;20209;-61
2023/04/11 00:51:28;;;;;;;5.50;4.87;;;11.00;99.90;;;-141.84;48.91;20059.75;5071219;28;20238;-60
2023/04/11 00:53:56;;;;;;;6.07;4.93;;;11.00;99.90;;;-141.84;48.72;20041.47;5065573;28;20224;-60
2023/04/11 00:56:26;;;;;;;6.03;4.90;;;11.00;99.90;;;-141.84;48.64;20061.78;5051690;28;20229;-61
2023/04/11 00:58:55;;;;;;;5.50;4.77;;;11.00;99.90;;;-141.84;48.33;20059.75;5062649;28;20574;-59
2023/04/11 01:01:23;;;;;;;6.60;4.93;;;11.00;99.90;;;-141.84;47.38;20102.44;5019912;28;20201;-60
2023/04/11 01:03:52;;;;;;;5.77;5.17;;;11.10;99.90;;;-141.84;48.41;20017.09;5051611;28;20247;-60
2023/04/11 01:06:23;;;;;;;5.50;4.70;;;11.00;99.90;;;-141.84;47.87;20082.13;5061561;28;20221;-60
2023/04/11 01:08:53;;;;;;;7.23;4.70;;;11.10;99.90;;;-141.84;48.27;20045.53;5071109;28;20231;-60
2023/04/11 01:11:22;;;;;;;5.37;4.87;;;11.00;99.90;;;-141.84;47.81;20078.06;5071142;28;20224;-60
2023/04/11 01:13:52;;;;;;;7.53;4.70;;;11.00;99.90;;;-141.84;47.59;20074.00;5038372;28;20231;-60
2023/04/11 01:16:21;;;;;;;5.47;4.97;;;11.00;99.90;;;-141.84;46.98;20082.13;5082507;28;20196;-61
2023/04/11 01:18:49;;;;;;;5.40;4.90;;;11.20;99.90;;;-141.84;46.75;20108.53;5070876;28;20312;-60
2023/04/11 01:21:19;;;;;;;5.83;4.80;;;11.20;99.90;;;-141.84;46.71;20114.63;5070904;28;20592;-61
2023/04/11 01:23:51;;;;;;;5.23;4.70;;;11.30;99.90;;;-141.84;46.96;20065.84;5070610;28;20732;-60
2023/04/11 01:26:19;;;;;;;5.13;4.63;;;11.30;99.90;;;-141.84;47.20;20074.00;5070879;28;20255;-61
2023/04/11 01:28:47;;;;;;;5.50;4.83;;;11.20;99.90;;;-141.84;46.64;20110.56;5070429;28;20228;-61
2023/04/11 01:31:15;;;;;;;5.33;4.60;;;11.30;99.90;;;-141.84;46.48;20112.59;5071306;28;20288;-61
2023/04/11 01:33:44;;;;;;;6.60;4.50;;;11.40;99.90;;;-141.84;46.58;20134.97;5070817;28;20316;-74
2023/04/11 01:36:13;;;;;;;5.70;4.27;;;11.40;99.90;;;-141.84;46.89;20065.84;5052159;28;20232;-76
2023/04/11 01:38:41;;;;;;;4.63;4.13;;;11.30;99.90;;;-141.84;47.23;20063.81;5070893;28;20220;-73
2023/04/11 01:41:11;;;;;;;5.80;5.20;;;11.20;99.90;;;-141.84;47.10;20065.84;5070651;28;20236;-73
2023/04/11 01:43:39;;;;;;;6.50;4.80;;;11.20;99.90;;;-141.84;47.86;20061.78;5070351;28;20204;-73
2023/04/11 01:46:10;;;;;;;5.10;4.60;;;11.20;99.90;;;-141.84;50.14;20021.16;5071267;28;20196;-73
2023/04/11 01:48:38;;;;;;;5.10;4.47;;;11.20;99.90;;;-141.84;53.12;20041.47;5035029;28;20231;-74
2023/04/11 01:51:07;;;;;;;6.47;4.77;;;11.10;99.90;;;-141.84;55.87;19968.31;5070512;28;20248;-74
2023/04/11 01:53:35;;;;;;;5.43;4.93;;;10.90;99.90;;;-141.84;59.03;19929.69;5067231;28;20635;-73
2023/04/11 01:56:04;;;;;;;6.50;5.70;;;10.60;99.90;;;-141.84;61.43;19925.63;5050855;28;20317;-73
2023/04/11 01:58:33;;;;;;;10.30;5.50;;;10.40;99.90;;;-141.84;62.87;19887.00;5052377;28;20212;-74
2023/04/11 02:01:02;;;;;;;7.33;6.23;;;10.20;99.90;;;-141.84;65.36;19840.25;5050915;28;20198;-73
2023/04/11 02:03:30;;;;;;;6.20;5.43;;;10.00;99.90;;;-141.84;66.91;19821.97;5069328;28;20323;-74
2023/04/11 02:05:59;;;;;;;6.90;5.90;;;9.70;99.90;;;-141.84;70.55;19793.50;5070803;28;20235;-75
2023/04/11 02:08:27;;;;;;;6.90;6.20;;;9.50;99.90;;;-141.84;71.43;19771.16;5076331;28;20212;-73
2023/04/11 02:10:55;;;;;;;7.27;6.57;;;9.30;99.90;;;-141.84;71.97;19758.97;5090709;28;20227;-74
2023/04/11 02:13:23;;;;;;;8.43;6.43;;;9.20;99.90;;;-141.84;73.54;19754.91;5075000;28;20231;-75
2023/04/11 02:15:52;;;;;;;7.80;6.67;;;9.10;99.90;;;-141.84;73.35;19763.03;5070710;28;20224;-72
2023/04/11 02:18:21;;;;;;;8.67;7.07;;;9.10;99.90;;;-141.84;73.90;19720.34;5070431;28;20683;-73
2023/04/11 02:20:50;;;;;;;7.63;6.73;;;9.10;99.90;;;-141.84;73.71;19724.41;5070254;28;20411;-74
2023/04/11 02:23:18;;;;;;;8.30;6.80;;;9.00;99.90;;;-141.84;73.48;19742.72;5070325;28;20235;-73
2023/04/11 02:25:46;;;;;;;10.13;6.77;;;9.10;99.90;;;-141.84;73.87;19734.56;5070695;28;20232;-76
2023/04/11 02:28:14;;;;;;;9.27;7.03;;;9.10;99.90;;;-141.84;75.35;19681.75;5070331;28;20212;-74
2023/04/11 02:30:42;;;;;;;9.57;7.30;;;9.00;99.90;;;-141.84;75.86;19689.88;5070215;28;20228;-74
2023/04/11 02:33:12;;;;;;;9.43;6.90;;;9.00;99.90;;;-141.84;76.52;19746.78;5069877;28;20440;-73
2023/04/11 02:35:41;;;;;;;9.43;7.33;;;9.00;99.90;;;-141.84;77.34;19675.63;5070246;28;20228;-72
2023/04/11 02:38:09;;;;;;;8.33;6.80;;;8.90;99.90;;;-141.84;78.25;19667.50;5070128;28;20286;-75
2023/04/11 02:40:37;;;;;;;8.27;7.03;;;8.90;99.90;;;-141.84;78.18;19706.13;5070544;28;20562;-72
2023/04/11 02:43:05;;;;;;;10.37;7.83;;;8.90;99.90;;;-141.84;78.28;19679.72;5070147;28;20424;-73
2023/04/11 02:45:33;;;;;;;7.73;6.93;;;8.90;99.90;;;-141.84;78.15;19657.34;5069645;28;20584;-73
2023/04/11 02:48:02;;;;;;;9.63;7.37;;;8.90;99.90;;;-141.84;78.66;19712.22;5049732;28;20225;-76
2023/04/11 02:50:31;;;;;;;8.73;7.00;;;8.90;99.90;;;-141.84;79.67;19695.97;5049960;28;20764;-73
2023/04/11 02:52:59;;;;;;;9.80;8.20;;;8.90;99.90;;;-141.84;79.67;19683.78;5049699;28;20229;-73
2023/04/11 02:55:27;;;;;;;9.90;7.93;;;8.80;99.90;;;-141.84;80.40;19695.97;5063076;28;20201;-75
2023/04/11 02:57:55;;;;;;;8.57;7.50;;;8.80;99.90;;;-141.84;81.44;19630.94;5069591;28;20201;-74
2023/04/11 03:00:25;;;;;;;9.50;7.53;;;8.70;99.90;;;-141.84;81.84;19639.06;5069485;28;20220;-76
2023/04/11 03:02:55;;;;;;;10.20;8.07;;;8.70;99.90;;;-141.84;81.71;19620.78;5069467;28;20228;-73
2023/04/11 03:05:23;;;;;;;8.67;7.50;;;8.70;99.90;;;-141.84;81.98;19612.63;5081207;28;20642;-74
2023/04/11 03:07:53;;;;;;;8.53;7.47;;;8.60;99.90;;;-141.84;80.74;19622.81;5071551;28;20225;-73
2023/04/11 03:10:21;;;;;;;8.20;7.13;;;8.70;99.90;;;-141.84;81.61;19616.72;5070222;28;20204;-73
2023/04/11 03:12:49;;;;;;;11.43;7.77;;;8.60;99.90;;;-141.84;81.23;19639.06;5069171;28;20235;-73
2023/04/11 03:15:17;;;;;;;10.23;7.63;;;8.70;99.90;;;-141.84;81.77;19618.75;5069119;28;20227;-73
2023/04/11 03:17:45;;;;;;;9.40;8.07;;;8.70;99.90;;;-141.84;81.54;19588.25;5069231;28;20228;-73
2023/04/11 03:20:19;;;;;;;10.23;8.37;;;8.60;99.90;;;-141.84;81.89;19626.88;5061795;28;20275;-73
2023/04/11 03:22:47;;;;;;;9.80;8.13;;;8.60;99.90;;;-141.84;81.71;19578.09;5049239;28;20255;-72
2023/04/11 03:25:16;;;;;;;9.93;8.23;;;8.60;99.90;;;-141.84;82.38;19547.59;5049541;28;20230;-73
2023/04/11 03:27:45;;;;;;;9.27;7.67;;;8.50;99.90;;;-141.84;82.28;19569.97;5055313;28;20216;-73
2023/04/11 03:30:14;;;;;;;9.17;7.33;;;8.50;99.90;;;-141.84;81.47;19626.88;5071125;28;20708;-75
2023/04/11 03:32:42;;;;;;;9.47;7.43;;;8.50;99.90;;;-141.84;81.77;19600.44;5072894;28;20239;-73
2023/04/11 03:35:11;;;;;;;9.50;8.07;;;8.50;99.90;;;-141.84;81.14;19604.50;5072769;28;20286;-73
2023/04/11 03:37:39;;;;;;;10.10;7.30;;;8.60;99.90;;;-141.84;81.35;19586.22;5072886;28;20213;-74
2023/04/11 03:40:09;;;;;;;9.10;7.63;;;8.60;99.90;;;-141.84;80.68;19647.19;5073365;28;20224;-74
2023/04/11 03:42:38;;;;;;;27.73;13.80;;;8.70;99.90;;;-141.84;81.17;19543.53;5072663;28;20228;-72
2023/04/11 03:45:09;;;;;;;14.60;9.40;;;8.60;99.90;;;-141.84;82.11;19600.44;5072367;28;20704;-73
2023/04/11 03:47:37;;;;;;;18.43;11.63;;;8.60;99.90;;;-141.84;82.69;19569.97;5072752;28;20221;-74
2023/04/11 03:50:07;;;;;;;21.07;15.57;;;8.50;99.90;;;-141.84;82.64;19561.84;5072887;28;20248;-73
2023/04/11 03:52:35;;;;;;;10.20;7.57;;;8.50;99.90;;;-141.84;81.50;19598.41;5052275;28;20691;-75
2023/04/11 03:55:07;;;;;;;9.53;7.73;;;8.60;99.90;;;-141.84;81.84;19580.13;5063511;28;20224;-74
2023/04/11 03:57:35;;;;;;;10.73;7.43;;;8.60;99.90;;;-141.84;82.02;19580.13;5072444;28;20579;-75
2023/04/11 04:00:06;;;;;;;9.13;7.30;;;8.60;99.90;;;-141.84;80.79;19592.31;5072093;28;20715;-73
2023/04/11 04:02:34;;;;;;;9.00;7.80;;;8.70;99.90;;;-141.84;78.45;19624.84;5091582;28;20235;-75
2023/04/11 04:05:03;;;;;;;8.40;6.67;;;8.80;99.90;;;-141.84;78.55;19614.66;5083816;28;20286;-73
2023/04/11 04:07:31;;;;;;;9.13;7.00;;;8.80;99.90;;;-141.84;79.71;19608.56;5072288;28;20207;-72
2023/04/11 04:10:00;;;;;;;8.90;7.17;;;8.80;99.90;;;-141.84;79.20;19596.38;5072826;28;20207;-74
2023/04/11 04:12:28;;;;;;;8.67;7.50;;;8.80;99.90;;;-141.84;80.18;19582.16;5072292;28;20232;-76
2023/04/11 04:14:56;;;;;;;9.77;7.60;;;8.80;99.90;;;-141.84;78.80;19604.50;5071996;28;20708;-73
2023/04/11 04:17:26;;;;;;;9.23;7.53;;;8.80;99.90;;;-141.84;78.40;19630.94;5072442;28;20224;-73
2023/04/11 04:19:54;;;;;;;8.67;6.90;;;8.90;99.90;;;-141.84;78.85;19588.25;5068571;28;20225;-74
2023/04/11 04:22:22;;;;;;;8.27;7.20;;;8.90;99.90;;;-141.84;78.59;19622.81;5055627;28;20268;-75
2023/04/11 04:24:51;;;;;;;8.57;7.13;;;8.90;99.90;;;-141.84;79.38;19553.72;5054360;28;20463;-73
2023/04/11 04:27:20;;;;;;;8.97;7.43;;;8.80;99.90;;;-141.84;80.16;19612.63;5054273;28;20225;-74
2023/04/11 04:29:48;;;;;;;8.60;7.50;;;8.80;99.90;;;-141.84;78.57;19596.38;5073979;28;20235;-74
2023/04/11 04:32:31;;;;;;;7.87;7.07;;;8.80;99.90;;;-141.84;77.93;19598.41;5074899;28;20618;-74
2023/04/11 04:35:00;;;;;;;8.77;7.20;;;8.90;99.90;;;-141.84;78.61;19628.91;5074911;28;20232;-73
2023/04/11 04:37:28;;;;;;;9.00;7.63;;;8.90;99.90;;;-141.84;79.21;19594.34;5074076;28;20200;-73
2023/04/11 04:40:04;;;;;;;8.67;7.03;;;8.90;99.90;;;-141.84;79.54;19592.31;5074951;28;20597;-74
2023/04/11 04:42:33;;;;;;;9.03;7.63;;;8.90;99.90;;;-141.84;78.86;19635.00;5022400;28;20239;-74
2023/04/11 04:45:01;;;;;;;7.90;6.90;;;8.90;99.90;;;-141.84;79.25;19600.44;5071673;28;20220;-74
2023/04/11 04:47:33;;;;;;;10.37;7.47;;;8.90;99.90;;;-141.84;78.53;19610.59;5072314;28;20224;-75
2023/04/11 04:50:02;;;;;;;10.57;7.87;;;9.00;99.90;;;-141.84;79.61;19582.16;5072327;28;20224;-74
2023/04/11 04:52:31;;;;;;;10.37;7.67;;;8.90;99.90;;;-141.84;79.88;19612.63;5072553;28;20231;-76
2023/04/11 04:55:00;;;;;;;9.30;7.70;;;8.90;99.90;;;-141.84;80.17;19578.09;5060056;28;20221;-73
2023/04/11 04:57:30;;;;;;;8.53;7.10;;;8.90;99.90;;;-141.84;80.45;19580.13;5069490;28;20364;-76
2023/04/11 04:59:59;;;;;;;9.47;7.57;;;8.90;99.90;;;-141.84;80.34;19614.66;5053783;28;20221;-74
2023/04/11 05:02:27;;;;;;;10.03;7.60;;;8.90;99.90;;;-141.84;80.61;19606.53;5070420;28;20233;-75
2023/04/11 05:05:02;;;;;;;9.33;7.37;;;8.90;99.90;;;-141.84;81.43;19602.47;5073565;28;20228;-75
2023/04/11 05:07:31;;;;;;;10.23;7.77;;;9.00;99.90;;;-141.84;81.31;19618.75;5073054;28;20268;-71
2023/04/11 05:09:59;;;;;;;8.60;6.90;;;9.00;99.90;;;-141.84;82.16;19598.41;5072334;28;20201;-71
2023/04/11 05:12:27;;;;;;;8.37;6.97;;;9.00;99.90;;;-141.84;83.18;19553.72;5071446;28;20229;-72
2023/04/11 05:14:55;;;;;;;9.73;8.10;;;8.90;99.90;;;-141.84;83.35;19594.34;5071189;28;20240;-73
2023/04/11 05:17:25;;;;;;;8.93;6.90;;;8.90;99.90;;;-141.84;83.43;19574.03;5071277;28;20256;-71
2023/04/11 05:19:53;;;;;;;8.13;6.90;;;8.90;99.90;;;-141.84;84.14;19578.09;5071323;28;20227;-72
2023/04/11 05:22:22;;;;;;;9.77;7.53;;;8.90;99.90;;;-141.84;82.64;19610.59;5071624;28;20205;-71
2023/04/11 05:24:51;;;;;;;8.13;6.90;;;9.00;99.90;;;-141.84;83.11;19614.66;5070741;28;20232;-72
2023/04/11 05:27:19;;;;;;;8.33;6.73;;;9.00;99.90;;;-141.84;83.28;19594.34;5070411;28;20228;-72
2023/04/11 05:29:47;;;;;;;7.73;6.53;;;9.00;99.90;;;-141.84;82.85;19628.91;5070738;28;20252;-71
2023/04/11 05:32:15;;;;;;;7.50;6.70;;;9.10;99.90;;;-141.84;83.34;19628.91;5070984;28;20224;-71
2023/04/11 05:34:54;;;;;;;8.13;6.23;;;9.10;99.90;;;-141.84;84.08;19578.09;5070564;28;20232;-71
2023/04/11 05:37:30;;;;;;;8.07;6.70;;;9.10;99.90;;;-141.84;84.44;19614.66;5068624;28;20188;-70
2023/04/11 05:39:58;;;;;;;7.13;5.90;;;9.10;99.90;;;-141.84;83.79;19590.28;5071165;28;20216;-71
2023/04/11 05:42:27;;;;;;;7.17;5.90;;;9.20;99.90;;;-141.84;84.17;19559.81;5070319;28;20255;-72
2023/04/11 05:44:55;;;;;;;8.37;6.20;;;9.10;99.90;;;-141.84;84.02;19598.41;5069335;28;20239;-73
2023/04/11 05:47:23;;;;;;;6.67;5.40;;;9.20;99.90;;;-141.84;84.35;19580.13;5071021;28;20737;-73
2023/04/11 05:49:52;;;;;;;7.27;5.43;;;9.20;99.90;;;-141.84;83.29;19606.53;5071080;28;20224;-72
2023/04/11 05:52:20;;;;;;;7.03;5.40;;;9.20;99.90;;;-141.84;83.45;19622.81;5072567;28;20208;-73
2023/04/11 05:54:49;;;;;;;7.57;5.33;;;9.20;99.90;;;-141.84;82.45;19594.34;5061734;28;20225;-71
2023/04/11 05:57:17;;;;;;;6.27;5.27;;;9.20;99.90;;;-141.84;81.95;19622.81;5056510;28;20594;-70
2023/04/11 05:59:48;;;;;;;6.87;5.00;;;9.30;99.90;;;-141.84;82.14;19635.00;5070078;28;20231;-70
2023/04/11 06:02:17;;;;;;;6.50;4.77;;;9.30;99.90;;;-141.84;82.26;19620.78;5070023;28;20704;-70
2023/04/11 06:04:45;;;;;;;5.27;4.60;;;9.30;99.90;;;-141.84;83.02;19576.06;5070293;28;20197;-70
2023/04/11 06:07:14;;;;;;;5.83;4.67;;;9.30;99.90;;;-141.84;82.92;19610.59;5070677;28;20208;-71
2023/04/11 06:09:43;;;;;;;5.40;4.60;;;9.30;99.90;;;-141.84;82.52;19582.16;5070054;28;20735;-70
2023/04/11 06:12:12;;;;;;;6.67;4.83;;;9.30;99.90;;;-141.84;82.21;19590.28;5070223;28;20232;-71
2023/04/11 06:14:40;;;;;;;5.07;4.20;;;9.30;99.90;;;-141.84;81.38;19622.81;5069874;28;20240;-72
2023/04/11 06:17:10;;;;;;;5.20;4.30;;;9.40;99.90;;;-141.84;81.11;19608.56;5069735;28;20232;-70
2023/04/11 06:19:38;;;;;;;5.10;3.90;;;9.40;99.90;;;-141.84;80.27;19661.41;5067868;28;20197;-70
2023/04/11 06:22:06;;;;;;;4.90;3.70;;;9.40;99.90;;;-141.84;79.82;19620.78;5050440;28;20212;-72
2023/04/11 06:24:36;;;;;;;12.10;7.90;;;9.40;99.90;;;-141.84;79.30;19632.97;5049905;28;20245;-70
2023/04/11 06:27:05;;;;;;;5.37;3.70;;;9.50;99.90;;;-141.84;78.87;19649.22;5048836;28;20287;-70
2023/04/11 06:29:35;;;;;;;3.30;3.00;;;9.50;99.90;;;-141.84;77.85;19687.84;5066980;28;20235;-70
2023/04/11 06:32:03;;;;;;;3.40;3.10;;;9.50;99.90;;;-141.84;77.29;19685.81;5069624;28;20240;-71
2023/04/11 06:34:31;;;;;;;4.00;3.10;;;9.60;99.90;;;-141.84;76.87;19647.19;5069765;28;20205;-71
2023/04/11 06:36:59;;;;;;;3.60;3.10;;;9.50;99.90;;;-141.84;77.66;19669.53;5070467;28;20229;-71
2023/04/11 06:39:27;;;;;;;3.30;2.67;;;9.50;99.90;;;-141.84;77.54;19643.13;5065265;28;20441;-71
2023/04/11 06:41:55;;;;;;;3.50;2.90;;;9.50;99.90;;;-141.84;77.01;19695.97;5049889;28;20680;-70
2023/04/11 06:44:23;;;;;;;5.23;3.77;;;9.50;99.90;;;-141.84;76.17;19663.44;5049154;28;20229;-71
2023/04/11 06:46:53;;;;;;;3.67;2.57;;;9.50;99.90;;;-141.84;76.54;19659.38;5060133;28;20223;-71
2023/04/11 06:49:22;;;;;;;3.93;2.70;;;9.60;99.90;;;-141.84;74.85;19706.13;5073111;28;20230;-70
2023/04/11 06:51:51;;;;;;;3.20;2.90;;;9.70;99.90;;;-141.84;75.49;19691.91;5089761;28;20657;-73
2023/04/11 06:54:19;;;;;;;3.90;2.60;;;9.70;99.90;;;-141.84;75.56;19695.97;5068188;28;20652;-70
2023/04/11 06:56:49;;;;;;;3.23;2.60;;;9.80;99.90;;;-141.84;75.47;19712.22;5049376;28;20665;-71
2023/04/11 06:59:19;;;;;;;3.07;2.73;;;9.80;99.90;;;-141.84;74.50;19724.41;5064498;28;20228;-72
2023/04/11 07:01:49;;;;;;;2.43;2.23;;;9.80;99.90;;;-141.84;74.83;19718.31;5069578;28;20646;-70
2023/04/11 07:04:18;;;;;;;2.73;2.40;;;9.80;99.90;;;-141.84;74.76;19685.81;5071805;28;20371;-71
2023/04/11 07:06:47;;;;;;;4.93;2.17;;;9.80;99.90;;;-141.84;75.01;19677.66;5073230;28;20699;-72
2023/04/11 07:09:15;;;;;;;3.47;2.30;;;9.90;99.90;;;-141.84;74.54;19738.66;5073452;28;20236;-71
2023/04/11 07:11:43;;;;;;;4.43;2.73;;;9.90;99.90;;;-141.84;73.99;19704.09;5073532;28;20428;-72
2023/04/11 07:14:11;;;;;;;3.47;2.30;;;9.90;99.90;;;-141.84;73.82;19761.00;5073340;28;20224;-72
2023/04/11 07:16:40;;;;;;;3.83;2.53;;;10.00;99.90;;;-141.84;73.04;19775.22;5073469;28;20224;-71
2023/04/11 07:19:08;;;;;;;4.50;3.50;;;10.00;99.90;;;-141.84;72.84;19769.13;5074162;28;20205;-71
2023/04/11 07:21:38;;;;;;;2.50;2.30;;;10.10;99.90;;;-141.84;72.35;19767.09;5074464;28;20225;-71
2023/04/11 07:24:07;;;;;;;3.13;2.27;;;10.20;99.90;;;-141.84;71.43;19791.47;5073145;28;20361;-72
2023/04/11 07:26:37;;;;;;;3.70;2.17;;;10.30;99.90;;;-141.84;71.03;19789.44;5073342;28;20281;-73
2023/04/11 07:29:05;;;;;;;2.87;2.30;;;10.30;99.90;;;-141.84;70.46;19789.44;5072863;28;20646;-72
2023/04/11 07:31:37;;;;;;;3.10;2.30;;;10.30;99.90;;;-141.84;70.56;19832.13;5073204;28;20648;-71
2023/04/11 07:34:05;;;;;;;3.00;2.10;;;10.30;99.90;;;-141.84;70.16;19793.50;5073998;28;20239;-71
2023/04/11 07:36:34;;;;;;;4.07;2.40;;;10.40;99.90;;;-141.84;70.38;19811.81;5076201;28;20228;-72
2023/04/11 07:39:07;;;;;;;2.50;1.87;;;10.50;99.90;;;-141.84;69.96;19848.38;5076245;28;20644;-71
2023/04/11 07:41:36;;;;;;;5.07;2.73;;;10.60;99.90;;;-141.84;70.00;19846.34;5075393;28;20248;-72
2023/04/11 07:44:06;;;;;;;3.53;2.00;;;10.60;99.90;;;-141.84;69.27;19864.66;5074878;28;20327;-71
2023/04/11 07:46:34;;;;;;;1.73;1.47;;;10.70;99.90;;;-141.84;68.13;19901.22;5057631;28;20197;-72
2023/04/11 07:49:02;;;;;;;1.73;1.60;;;10.90;99.90;;;-141.84;67.04;19887.00;5076378;28;20201;-72
2023/04/11 07:51:31;;;;;;;2.17;1.50;;;10.90;99.90;;;-141.84;66.40;19919.53;5075190;28;20224;-71
2023/04/11 07:54:00;;;;;;;1.97;1.53;;;11.10;99.90;;;-141.84;65.46;20013.00;5067806;28;20217;-71
2023/04/11 07:56:29;;;;;;;2.50;1.40;;;11.40;99.90;;;-141.84;65.10;19992.69;5056576;28;20584;-71
2023/04/11 07:58:57;;;;;;;2.27;1.53;;;11.50;99.90;;;-141.84;64.17;20017.09;5068955;28;20235;-72
2023/04/11 08:01:26;;;;;;;7.23;1.50;;;11.80;99.90;;;-141.84;64.07;20061.78;5077466;28;20212;-70
2023/04/11 08:03:56;;;;;;;1.97;1.10;;;11.80;99.90;;;-141.84;63.54;20025.22;5074262;28;20220;-72
2023/04/11 08:06:25;;;;;;;2.40;1.30;;;11.90;99.90;;;-141.84;63.64;20051.63;5072441;28;20224;-73
2023/04/11 08:08:53;;;;;;;2.70;1.70;;;11.90;99.90;;;-141.84;62.83;20037.41;5072484;28;20225;-71
2023/04/11 08:11:21;;;;;;;2.73;1.50;;;12.10;99.90;;;-141.84;62.42;20047.56;5072454;28;20251;-70
2023/04/11 08:13:51;;;;;;;4.47;1.57;;;12.10;99.90;;;-141.84;62.32;20069.94;5072263;28;20224;-73
2023/04/11 08:16:19;;;;;;;2.17;1.37;;;12.00;99.90;;;-141.84;61.81;20067.88;5072514;28;20308;-71
2023/04/11 08:18:47;;;;;;;3.30;1.70;;;12.10;99.90;;;-141.84;61.29;20090.25;5072361;28;20308;-73
2023/04/11 08:21:15;;;;;;;4.53;1.90;;;12.40;99.90;;;-141.84;61.40;20108.53;5072216;28;20236;-72
2023/04/11 08:23:43;;;;;;;2.23;1.57;;;12.30;99.90;;;-141.84;60.66;20132.94;5072112;28;20700;-72
2023/04/11 08:26:12;;;;;;;4.23;1.50;;;12.50;99.90;;;-141.84;60.83;20114.63;5072663;28;20217;-73
2023/04/11 08:28:40;;;;;;;2.23;1.40;;;12.30;99.90;;;-141.84;61.69;20053.66;5052603;28;20629;-72
2023/04/11 08:31:11;;;;;;;1.87;1.57;;;12.30;99.90;;;-141.84;61.74;20071.97;5072685;28;20555;-72
2023/04/11 08:33:40;;;;;;;4.00;1.50;;;12.20;99.90;;;-141.84;61.56;20023.19;5072053;28;20285;-70
2023/04/11 08:36:10;;;;;;;2.53;1.90;;;12.10;99.90;;;-141.84;60.66;20069.94;5071788;28;20310;-73
2023/04/11 08:38:39;;;;;;;3.27;1.60;;;12.20;99.90;;;-141.84;60.49;20063.81;5071743;28;20234;-73
2023/04/11 08:41:08;;;;;;;2.57;1.60;;;12.10;99.90;;;-141.84;60.22;20090.25;5071955;28;20256;-72
2023/04/11 08:43:37;;;;;;;3.07;1.70;;;12.20;99.90;;;-141.84;59.71;20120.75;5071439;28;20665;-72
2023/04/11 08:46:07;;;;;;;5.47;1.70;;;12.30;99.90;;;-141.84;58.66;20143.09;5020461;28;20235;-73
2023/04/11 08:48:38;;;;;;;4.63;2.10;;;12.60;99.90;;;-141.84;56.84;20214.22;5071346;28;20723;-72
2023/04/11 08:51:07;;;;;;;3.13;1.43;;;12.80;99.90;;;-141.84;56.77;20252.84;5071630;28;20233;-71
2023/04/11 08:53:38;;;;;;;2.77;1.57;;;13.00;99.90;;;-141.84;56.52;20202.03;5071195;28;20718;-72
2023/04/11 08:56:14;;;;;;;4.23;1.70;;;13.00;99.90;;;-141.84;56.58;20246.75;5071430;28;20345;-71
2023/04/11 08:58:43;;;;;;;3.13;1.70;;;13.10;99.90;;;-141.84;55.51;20326.03;5071521;28;20212;-73
2023/04/11 09:01:30;;;;;;;3.77;1.60;;;13.30;99.90;;;-141.84;56.78;20216.25;5072152;28;20282;-70
2023/04/11 09:04:03;;;;;;;2.63;1.57;;;13.10;99.90;;;-141.84;58.20;20039.44;5072227;28;20205;-71
2023/04/11 09:06:33;;;;;;;3.23;1.70;;;12.40;99.90;;;-141.84;61.24;19927.66;5071822;28;20216;-71
2023/04/11 09:09:05;;;;;;;3.83;1.73;;;11.60;99.90;;;-141.84;62.62;19848.38;5071470;28;20645;-70
2023/04/11 09:11:52;;;;;;;6.30;1.97;;;11.00;99.90;;;-141.84;65.22;19819.94;5072060;28;20221;-73
2023/04/11 09:14:25;;;;;;;3.67;1.80;;;10.70;99.90;;;-141.84;66.90;19860.59;5051504;28;20229;-71
2023/04/11 09:16:58;;;;;;;3.07;1.80;;;10.70;99.90;;;-141.84;64.97;19887.00;5051946;28;20224;-72
2023/04/11 09:19:31;;;;;;;2.13;1.73;;;10.80;99.90;;;-141.84;65.05;19882.94;5017925;28;20292;-69
2023/04/11 09:22:03;;;;;;;4.10;2.00;;;11.00;99.90;;;-141.84;63.26;19921.56;5052043;28;20284;-72
2023/04/11 09:24:32;;;;;;;5.53;1.90;;;11.20;99.90;;;-141.84;63.56;19921.56;5051596;28;20233;-71
2023/04/11 09:27:12;;;;;;;3.00;1.80;;;11.40;99.90;;;-141.84;63.72;19956.09;5051189;28;20354;-73
2023/04/11 09:29:44;;;;;;;3.57;2.10;;;11.60;99.90;;;-141.84;62.25;19978.47;5070740;28;20232;-73
2023/04/11 09:32:28;;;;;;;4.47;2.00;;;11.70;99.90;;;-141.84;62.33;20015.03;5071057;28;20243;-72
2023/04/11 09:35:14;;;;;;;4.17;1.93;;;11.90;99.90;;;-141.84;59.06;20114.63;5070995;28;20224;-72
2023/04/11 09:37:47;;;;;;;6.37;1.83;;;12.20;99.90;;;-141.84;57.83;20122.78;5071322;28;20208;-72
2023/04/11 09:40:18;;;;;;;5.60;1.80;;;12.40;99.90;;;-141.84;55.39;20155.28;5051668;28;20189;-72
2023/04/11 09:42:48;;;;;;;3.60;1.87;;;12.60;99.90;;;-141.84;53.56;20232.53;5042489;28;20220;-71
2023/04/11 09:45:19;;;;;;;3.47;1.63;;;13.00;99.90;;;-141.84;52.72;20254.88;5070998;28;20224;-71
2023/04/11 09:47:49;;;;;;;6.13;1.43;;;13.20;99.90;;;-141.84;52.14;20330.09;5070871;28;20231;-74
2023/04/11 09:50:19;;;;;;;3.77;1.50;;;13.60;99.90;;;-141.84;50.88;20393.09;5070580;28;20221;-72
2023/04/11 09:52:48;;;;;;;4.57;1.80;;;13.70;99.90;;;-141.84;48.07;20395.13;5070917;28;20277;-72
2023/04/11 09:55:20;;;;;;;5.30;1.90;;;13.70;99.90;;;-141.84;48.46;20348.38;5054459;28;20197;-72
2023/04/11 09:57:50;;;;;;;2.17;1.00;;;13.80;99.90;;;-141.84;50.25;20273.19;5051665;28;20774;-71
2023/04/11 10:00:21;;;;;;;0.97;0.60;;;13.30;99.90;;;-141.84;51.60;20134.97;5070257;28;20231;-72
2023/04/11 10:02:52;;;;;;;0.90;0.50;;;12.70;99.90;;;-141.84;55.33;20047.56;5070355;28;20602;-73
2023/04/11 10:05:28;;;;;;;3.20;0.90;;;11.90;99.90;;;-141.84;58.36;19927.66;5070930;28;20259;-71
2023/04/11 10:08:05;;;;;;;2.47;1.10;;;11.20;99.90;;;-141.84;61.81;19817.91;5070639;28;20227;-71
2023/04/11 10:10:35;;;;;;;0.87;0.70;;;10.50;99.90;;;-141.84;64.20;19781.31;5035528;28;20204;-70
2023/04/11 10:13:23;;;;;;;0.97;0.80;;;10.00;99.90;;;-141.84;63.58;19740.69;5071263;28;20211;-72
2023/04/11 10:16:07;;;;;;;2.70;1.03;;;9.70;99.90;;;-141.84;64.74;19732.53;5070398;28;20218;-71
2023/04/11 10:18:36;;;;;;;3.03;1.20;;;9.50;99.90;;;-141.84;63.83;19773.19;5051820;28;20857;-72